Main page
METAR-TAF:

METAR-TAF

Airports :

Montpellier–Méditerranée Airport

Montpellier, France

latitude: 43-35N, longitude: 003-58E, elevation: 5 m

Current weather observation

The report was made 21 minutes ago, at 21:00 UTC
Wind 5 kt from the North
Temperature 2°C
Humidity 80%
Pressure 1022 hPa
Visibility 10 km or more
no clouds below 1500 m and no cumulonimbus

METAR: LFMT 102100Z AUTO 35005KT CAVOK 02/M01 Q1022 NOSIG

Time: 22:21 (21:21 UTC)

Forecast

The report was made 1 hour and 21 minutes ago, at 20:00 UTC
Forecast valid from 10 at 21 UTC to 11 at 21 UTC
Wind 5 kt from the North/Northwest
Visibility 10 km or more
no clouds below 1500 m and no cumulonimbus
Temporary
from 11 at 16 UTC to 11 at 21 UTC
Wind 15 kt from the West/Northwest

TAF: LFMT 102000Z 1021/1121 33005KT CAVOK TEMPO 1116/1121 30015KT

Weather observations and forecasts of more than 4000 airports (METAR and TAF reports).

The available stations are represented by yellow and red dots on the map.

Hover mouse over dot to see the name of the station.

Then click to see weather observations and forecasts.

To change the map : click on the green buttons with a black cross to zoom in, on the green button with a dash to zoom out, or on the green arrows for adjacent maps.


METAR-TAF: